aviador You're here:

KMLT Decoded Metar

MILLINOCKET in ME, USA
Report Time2017-09-24 22:53:00
UTC Time2017-09-24 23:06:08
Flight Rules vfr VFR
WindCalm
Visibility9999 m
Phenomena:N/A
Clouds:N/A
Expected CloudBase > 1,200 ft AGL from Temp-Dew spread
CeilingNone
Temp24°C (ISA +10)
Dew Point21°C (83% RH)
QNH1016 hPa
Density Alt1,768 ft
Elevation404 ft
Report Wrong Elevation
Raw Report
KMLT 242253Z AUTO 00000KT 10SM CLR 24/21 A2999 RMK AO2 SLP159
T02390206 TSNO=

Extra information for KMLT:More info

Metar Taf Metar & Taf Last 4 Metars F.Rules Stats Wind Profile Meteogram Temp Stats Airport Information Weather charts Add Link Nearby VenuesMetar ALERT Operation Metar Decoded Social comments

AIRNAV info for KMLT